createdAt,value
2022-08-18T00:03:00.494Z,4.05
2022-08-18T00:08:06.752Z,4.13
2022-08-18T00:13:10.492Z,3.88
2022-08-18T00:18:16.043Z,3.80
2022-08-18T00:23:19.769Z,4.10
2022-08-18T00:28:23.893Z,3.70
2022-08-18T00:33:29.640Z,3.90
2022-08-18T00:38:33.460Z,3.80
2022-08-18T00:43:45.549Z,3.67
2022-08-18T00:48:51.832Z,3.70
2022-08-18T00:59:14.049Z,3.85
2022-08-18T01:04:25.729Z,3.85
2022-08-18T01:09:30.036Z,4.00
2022-08-18T01:14:34.058Z,3.90
2022-08-18T01:19:56.890Z,3.80
2022-08-18T01:25:21.219Z,3.58
2022-08-18T01:30:27.554Z,3.60
2022-08-18T01:35:35.051Z,4.05
2022-08-18T01:41:24.064Z,3.47
2022-08-18T01:51:17.937Z,3.40
2022-08-18T01:56:23.354Z,3.40
2022-08-18T02:01:36.487Z,3.53
2022-08-18T02:06:42.354Z,3.47
2022-08-18T02:11:53.234Z,3.67
2022-08-18T02:17:01.808Z,3.60
2022-08-18T02:22:09.883Z,3.38
2022-08-18T02:27:17.259Z,3.42
2022-08-18T02:32:21.496Z,3.33
2022-08-18T02:37:26.598Z,3.05
2022-08-18T02:42:31.912Z,3.35
2022-08-18T02:47:35.975Z,3.40
2022-08-18T02:52:40.699Z,3.50
2022-08-18T02:57:49.077Z,3.47
2022-08-18T03:02:54.617Z,3.40
2022-08-18T03:07:59.776Z,3.65
2022-08-18T03:13:05.128Z,3.70
2022-08-18T03:18:08.912Z,3.50
2022-08-18T03:23:13.600Z,3.50
2022-08-18T03:28:19.111Z,3.45
2022-08-18T03:33:23.247Z,3.67
2022-08-18T03:38:27.175Z,3.97
2022-08-18T03:43:51.477Z,4.00
2022-08-18T03:48:58.843Z,3.60
2022-08-18T03:54:05.837Z,4.00
2022-08-18T03:59:17.052Z,3.95
2022-08-18T04:04:25.460Z,4.00
2022-08-18T04:09:33.501Z,4.50
2022-08-18T04:14:39.147Z,4.80
2022-08-18T04:19:43.045Z,4.50
2022-08-18T04:24:49.810Z,5.10
2022-08-18T04:35:02.919Z,4.75
2022-08-18T04:40:09.699Z,5.00
2022-08-18T04:45:18.395Z,5.07
2022-08-18T04:50:24.567Z,5.22
2022-08-18T04:55:33.882Z,5.22
2022-08-18T05:00:39.060Z,5.35
2022-08-18T05:05:42.717Z,4.93
2022-08-18T05:10:47.486Z,5.22
2022-08-18T05:16:09.814Z,5.20
2022-08-18T05:21:16.332Z,5.00
2022-08-18T05:26:21.276Z,5.13
2022-08-18T05:31:30.544Z,5.03
2022-08-18T05:37:11.699Z,5.22
2022-08-18T05:42:21.500Z,5.10
2022-08-18T05:47:30.773Z,5.57
2022-08-18T05:52:41.386Z,5.53
2022-08-18T05:57:52.168Z,5.20
2022-08-18T06:03:06.067Z,5.50
2022-08-18T06:08:13.963Z,5.10
2022-08-18T06:13:20.814Z,5.22
2022-08-18T06:24:07.384Z,5.50
2022-08-18T06:29:36.446Z,5.10
2022-08-18T06:35:05.120Z,5.40
2022-08-18T06:40:09.548Z,5.57
2022-08-18T06:45:18.404Z,5.30
2022-08-18T06:50:30.293Z,5.32
2022-08-18T06:55:37.640Z,5.55
2022-08-18T07:00:56.471Z,5.32
2022-08-18T07:06:08.021Z,4.85
2022-08-18T07:11:22.903Z,5.13
2022-08-18T07:16:57.208Z,5.20
2022-08-18T07:22:08.641Z,5.20
2022-08-18T07:27:17.685Z,5.22
2022-08-18T07:32:25.030Z,5.00
2022-08-18T07:37:37.885Z,5.00
2022-08-18T07:43:01.691Z,4.70
2022-08-18T07:48:37.123Z,4.90
2022-08-18T07:53:56.830Z,4.90
2022-08-18T07:59:12.827Z,4.82
2022-08-18T08:04:27.424Z,5.00
2022-08-18T08:09:47.190Z,4.65
2022-08-18T08:15:08.171Z,4.70
2022-08-18T08:20:31.984Z,5.00
2022-08-18T08:25:56.460Z,4.50
2022-08-18T08:31:36.118Z,4.53
2022-08-18T08:36:41.776Z,4.50
2022-08-18T08:41:57.492Z,4.65
2022-08-18T08:47:25.519Z,4.60
2022-08-18T08:52:37.797Z,4.38
2022-08-18T08:58:00.427Z,4.38
2022-08-18T09:03:29.999Z,4.72
2022-08-18T09:09:09.179Z,4.53
2022-08-18T09:15:34.350Z,4.45
2022-08-18T09:20:58.628Z,4.43
2022-08-18T09:26:40.890Z,4.50
2022-08-18T09:31:47.505Z,4.45
2022-08-18T09:37:10.368Z,4.47
2022-08-18T09:42:30.126Z,4.72
2022-08-18T10:00:30.516Z,4.57
2022-08-18T10:05:37.421Z,4.40
2022-08-18T10:11:00.976Z,4.30
2022-08-18T10:16:23.238Z,4.30
2022-08-18T10:21:33.482Z,4.53
2022-08-18T10:27:35.541Z,4.70
2022-08-18T10:32:52.054Z,4.65
2022-08-18T10:37:56.889Z,4.70
2022-08-18T10:43:45.775Z,4.30
2022-08-18T10:48:40.171Z,4.70
2022-08-18T10:53:53.778Z,4.40
2022-08-18T10:59:28.367Z,4.68
2022-08-18T11:04:39.228Z,4.40
2022-08-18T11:09:50.857Z,4.50
2022-08-18T11:15:23.646Z,4.82
2022-08-18T11:20:33.150Z,4.50
2022-08-18T11:25:42.074Z,4.65
2022-08-18T11:30:52.544Z,4.55
2022-08-18T11:41:33.894Z,4.45
2022-08-18T11:46:58.282Z,4.35
2022-08-18T11:52:19.623Z,4.32
2022-08-18T11:57:56.084Z,4.50
2022-08-18T12:03:06.215Z,4.05
2022-08-18T12:08:54.600Z,4.53
2022-08-18T12:13:59.065Z,4.15
2022-08-18T12:19:06.089Z,4.30
2022-08-18T12:24:26.201Z,4.15
2022-08-18T12:29:43.516Z,4.13
2022-08-18T12:35:02.079Z,4.38
2022-08-18T12:40:13.117Z,4.20
2022-08-18T12:45:17.103Z,4.00
2022-08-18T12:55:46.591Z,3.95
2022-08-18T13:00:55.609Z,4.03
2022-08-18T13:06:02.484Z,4.00
2022-08-18T13:11:20.872Z,4.10
2022-08-18T13:16:30.516Z,4.05
2022-08-18T13:21:41.223Z,4.28
2022-08-18T13:26:48.786Z,4.13
2022-08-18T13:31:57.750Z,4.20
2022-08-18T13:37:02.966Z,4.15
2022-08-18T13:42:28.547Z,4.30
2022-08-18T13:47:32.161Z,4.07
2022-08-18T13:52:44.798Z,4.10
2022-08-18T13:57:50.025Z,4.20
2022-08-18T14:02:55.566Z,4.18
2022-08-18T14:08:01.758Z,4.20
2022-08-18T14:13:09.420Z,4.25
2022-08-18T14:18:28.566Z,4.00
2022-08-18T14:23:58.244Z,3.78
2022-08-18T14:29:05.121Z,3.92
2022-08-18T14:34:09.499Z,4.20
2022-08-18T14:39:14.660Z,4.05
2022-08-18T14:44:23.531Z,3.58
2022-08-18T14:49:31.262Z,3.80
2022-08-18T15:04:53.113Z,4.00
2022-08-18T15:10:16.161Z,3.90
2022-08-18T15:15:22.850Z,3.63
2022-08-18T15:20:30.028Z,3.67
2022-08-18T15:25:44.689Z,4.03
2022-08-18T15:30:52.071Z,3.72
2022-08-18T15:35:56.348Z,3.50
2022-08-18T15:41:06.080Z,3.50
2022-08-18T15:46:14.016Z,3.70
2022-08-18T15:51:20.758Z,3.85
2022-08-18T15:56:28.289Z,3.60
2022-08-18T16:01:33.096Z,3.72
2022-08-18T16:06:45.293Z,3.47
2022-08-18T16:11:50.791Z,3.65
2022-08-18T16:16:55.294Z,3.60
2022-08-18T16:21:58.962Z,3.60
2022-08-18T16:27:06.627Z,3.35
2022-08-18T16:32:16.201Z,3.28
2022-08-18T16:37:20.511Z,3.28
2022-08-18T16:42:25.786Z,3.50
2022-08-18T16:47:30.060Z,3.65
2022-08-18T16:52:37.229Z,3.38
2022-08-18T16:58:07.957Z,3.20
2022-08-18T17:03:30.315Z,3.50
2022-08-18T17:08:35.082Z,3.30
2022-08-18T17:13:41.016Z,3.60
2022-08-18T17:18:45.668Z,3.30
2022-08-18T17:23:51.692Z,3.33
2022-08-18T17:29:16.424Z,3.20
2022-08-18T17:34:42.045Z,3.22
2022-08-18T17:40:00.487Z,3.45
2022-08-18T17:45:21.755Z,3.33
2022-08-18T17:50:57.860Z,3.50
2022-08-18T17:56:11.800Z,3.60
2022-08-18T18:01:18.233Z,3.30
2022-08-18T18:06:40.416Z,3.42
2022-08-18T18:11:47.615Z,3.60
2022-08-18T18:17:07.191Z,3.22
2022-08-18T18:22:21.484Z,3.50
2022-08-18T18:27:33.550Z,3.67
2022-08-18T18:33:00.585Z,3.50
2022-08-18T18:38:24.395Z,3.60
2022-08-18T18:43:38.312Z,3.50
2022-08-18T18:48:58.049Z,3.72
2022-08-18T18:54:17.043Z,3.67
2022-08-18T18:59:40.593Z,3.60
2022-08-18T19:04:52.970Z,3.65
2022-08-18T19:10:07.761Z,3.60
2022-08-18T19:15:15.540Z,3.63
2022-08-18T19:20:28.511Z,3.83
2022-08-18T19:25:38.024Z,3.67
2022-08-18T19:30:51.761Z,3.42
2022-08-18T19:36:07.504Z,3.92
2022-08-18T19:41:21.269Z,3.77
2022-08-18T19:46:37.003Z,3.78
2022-08-18T19:51:44.547Z,3.95
2022-08-18T19:57:36.407Z,3.80
2022-08-18T20:03:12.219Z,3.63
2022-08-18T20:09:33.141Z,4.00
2022-08-18T20:20:19.046Z,3.78
2022-08-18T20:25:48.760Z,4.13
2022-08-18T20:49:06.174Z,3.70
2022-08-18T20:54:32.551Z,4.10
2022-08-18T20:59:45.708Z,4.13
2022-08-18T21:04:54.850Z,3.80
2022-08-18T21:10:12.225Z,3.83
2022-08-18T21:15:16.977Z,4.10
2022-08-18T21:20:25.486Z,4.00
2022-08-18T21:25:29.548Z,4.05
2022-08-18T21:30:34.403Z,4.07
2022-08-18T21:35:39.533Z,4.10
2022-08-18T21:40:48.420Z,3.90
2022-08-18T21:45:59.344Z,4.00
2022-08-18T21:51:06.576Z,4.18
2022-08-18T21:56:24.607Z,4.40
2022-08-18T22:01:29.599Z,3.90
2022-08-18T22:06:41.837Z,4.07
2022-08-18T22:12:03.424Z,4.10
2022-08-18T22:17:42.242Z,4.45
2022-08-18T22:23:05.086Z,4.18
2022-08-18T22:28:08.819Z,4.05
2022-08-18T22:33:12.892Z,3.92
2022-08-18T22:38:19.172Z,3.80
2022-08-18T22:43:23.155Z,3.77
2022-08-18T22:48:26.908Z,3.85
2022-08-18T22:53:32.573Z,4.30
2022-08-18T22:58:36.639Z,4.20
2022-08-18T23:03:43.151Z,4.03
2022-08-18T23:08:54.652Z,4.25
2022-08-18T23:14:03.204Z,4.05
2022-08-18T23:19:06.965Z,4.00
2022-08-18T23:24:16.136Z,4.15
2022-08-18T23:29:22.185Z,3.90
2022-08-18T23:34:27.352Z,4.10
2022-08-18T23:39:35.810Z,3.78
2022-08-18T23:44:39.858Z,4.07
2022-08-18T23:49:43.654Z,3.83
2022-08-18T23:54:49.050Z,3.88
2022-08-18T23:59:52.716Z,3.90
